Strona główna
METAR-TAF:

METAR-TAF

Lotnisko :

Port lotniczy Annecy

Annecy, Francja

Szerokość geograficzna: 45-55-45N, Długość geograficzna: 006-05-56E, wysokość: 463 m

Aktualna obserwacja pogody

Raport powstał 36 minut temu, godzina 05:30 UTC
Cisza
Temperatura 14°C
Wilgotność 72%
Ciśnienie 1018 hPa
Widzialność 10 km lub więcej
Brak chmur poniżej 1500 m i brak chmur cumulonimbus

METAR: LFLP 010530Z AUTO 00000KT CAVOK 14/09 Q1018

czas: 08:06 (06:06 UTC)


TAF: brakujący

Obserwacja i prognoza pogody dla ponad 4000 lotnisk (raport METAR i TAF).

Dostępne stacje oznaczono żółtymi i czerwonymi punktami na mapie.

Najedź kursorem aby zobaczyć nazwę stacji.

Kliknij aby zobaczyć obserwacje i prognozy pogody.

Aby zmienić mapę: kliknij na zielony przycisk z czarnym krzyżykiem, aby powiększyć; na zielony przycisk z myślnikiem, aby pomniejszyć; na zielone strzałki, aby przejść do map sąsiednich.


METAR-TAF: